createdAt,value
2018-01-06T00:00:15.115Z,29.40
2018-01-06T00:02:41.299Z,31.40
2018-01-06T00:05:07.507Z,27.23
2018-01-06T00:07:33.681Z,35.77
2018-01-06T00:10:00.604Z,28.40
2018-01-06T00:12:26.801Z,29.93
2018-01-06T00:14:52.979Z,26.90
2018-01-06T00:17:19.176Z,44.93
2018-01-06T00:19:45.387Z,30.17
2018-01-06T00:22:11.576Z,32.50
2018-01-06T00:24:37.751Z,56.27
2018-01-06T00:27:04.721Z,35.37
2018-01-06T00:29:30.924Z,38.40
2018-01-06T00:31:57.168Z,42.17
2018-01-06T00:34:23.429Z,38.63
2018-01-06T00:36:49.609Z,44.87
2018-01-06T00:39:15.827Z,40.03
2018-01-06T00:41:42.049Z,40.63
2018-01-06T00:44:08.226Z,38.63
2018-01-06T00:46:35.183Z,35.77
2018-01-06T00:49:02.196Z,32.07
2018-01-06T00:51:28.397Z,41.37
2018-01-06T00:53:54.604Z,39.77
2018-01-06T00:56:20.816Z,43.27
2018-01-06T00:58:46.988Z,44.07
2018-01-06T01:01:13.884Z,34.80
2018-01-06T01:03:40.072Z,33.30
2018-01-06T01:06:06.239Z,40.10
2018-01-06T01:08:32.424Z,40.10
2018-01-06T01:10:59.358Z,42.07
2018-01-06T01:13:25.533Z,46.53
2018-01-06T01:15:51.708Z,31.93
2018-01-06T01:18:17.888Z,49.47
2018-01-06T01:20:44.051Z,38.03
2018-01-06T01:23:10.238Z,38.30
2018-01-06T01:25:36.408Z,42.33
2018-01-06T01:28:02.590Z,49.03
2018-01-06T01:30:28.749Z,33.93
2018-01-06T01:32:54.951Z,41.93
2018-01-06T01:35:21.887Z,48.10
2018-01-06T01:37:48.080Z,34.97
2018-01-06T01:40:14.312Z,45.20
2018-01-06T01:42:40.504Z,35.80
2018-01-06T01:45:06.676Z,44.67
2018-01-06T01:47:33.973Z,44.77
2018-01-06T01:50:00.212Z,45.53
2018-01-06T01:52:26.412Z,47.90
2018-01-06T01:54:52.604Z,39.77
2018-01-06T01:57:18.792Z,43.37
2018-01-06T01:59:44.985Z,38.57
2018-01-06T02:02:11.930Z,41.07
2018-01-06T02:04:38.144Z,45.00
2018-01-06T02:07:04.316Z,39.83
2018-01-06T02:09:31.296Z,46.07
2018-01-06T02:11:57.491Z,31.57
2018-01-06T02:14:24.399Z,35.17
2018-01-06T02:16:50.673Z,40.90
2018-01-06T02:19:17.578Z,35.37
2018-01-06T02:21:43.756Z,35.23
2018-01-06T02:24:09.936Z,36.70
2018-01-06T02:26:36.131Z,38.27
2018-01-06T02:29:02.340Z,28.43
2018-01-06T02:31:28.541Z,33.10
2018-01-06T02:33:54.708Z,30.47
2018-01-06T02:36:21.628Z,30.53
2018-01-06T02:38:47.819Z,31.43
2018-01-06T02:41:14.742Z,28.80
2018-01-06T02:43:40.907Z,30.20
2018-01-06T02:46:07.852Z,32.77
2018-01-06T02:48:34.779Z,33.03
2018-01-06T02:51:01.022Z,31.50
2018-01-06T02:53:27.240Z,30.53
2018-01-06T02:55:53.412Z,36.20
2018-01-06T02:58:20.329Z,26.87
2018-01-06T03:00:46.530Z,34.47
2018-01-06T03:03:12.723Z,28.60
2018-01-06T03:05:38.900Z,39.77
2018-01-06T03:08:05.100Z,32.27
2018-01-06T03:10:32.008Z,43.50
2018-01-06T03:12:58.178Z,38.13
2018-01-06T03:15:24.380Z,34.30
2018-01-06T03:17:50.560Z,38.50
2018-01-06T03:20:16.736Z,34.53
2018-01-06T03:22:42.933Z,29.70
2018-01-06T03:25:09.104Z,32.07
2018-01-06T03:27:35.287Z,28.90
2018-01-06T03:30:03.130Z,35.87
2018-01-06T03:32:30.044Z,36.63
2018-01-06T03:34:56.212Z,37.10
2018-01-06T03:37:22.416Z,42.50
2018-01-06T03:39:48.614Z,41.90
2018-01-06T03:42:15.496Z,33.17
2018-01-06T03:44:41.688Z,42.53
2018-01-06T03:47:08.587Z,36.93
2018-01-06T03:49:34.756Z,46.13
2018-01-06T03:52:01.775Z,29.87
2018-01-06T03:54:27.963Z,33.50
2018-01-06T03:56:54.139Z,33.40
2018-01-06T03:59:20.355Z,35.30
2018-01-06T04:01:46.519Z,41.20
2018-01-06T04:04:12.691Z,41.67
2018-01-06T04:06:39.787Z,28.87
2018-01-06T04:09:05.965Z,29.30
2018-01-06T04:11:32.868Z,32.30
2018-01-06T04:13:59.068Z,48.77
2018-01-06T04:16:25.248Z,39.77
2018-01-06T04:18:51.460Z,30.60
2018-01-06T04:21:17.684Z,35.87
2018-01-06T04:23:43.870Z,37.67
2018-01-06T04:26:10.024Z,41.67
2018-01-06T04:28:36.981Z,38.13
2018-01-06T04:31:03.156Z,33.30
2018-01-06T04:33:29.336Z,36.63
2018-01-06T04:35:55.545Z,35.93
2018-01-06T04:38:21.727Z,38.53
2018-01-06T04:40:47.896Z,30.93
2018-01-06T04:43:14.080Z,29.90
2018-01-06T04:45:40.256Z,28.70
2018-01-06T04:48:06.440Z,33.70
2018-01-06T04:50:32.675Z,35.40
2018-01-06T04:52:59.244Z,30.63
2018-01-06T04:55:25.468Z,27.00
2018-01-06T04:57:52.418Z,32.30
2018-01-06T05:00:18.592Z,29.87
2018-01-06T05:02:44.769Z,39.70
2018-01-06T05:05:10.992Z,35.87
2018-01-06T05:07:37.914Z,40.43
2018-01-06T05:10:04.100Z,35.83
2018-01-06T05:12:30.481Z,35.20
2018-01-06T05:14:56.676Z,37.50
2018-01-06T05:17:22.852Z,34.63
2018-01-06T05:19:49.040Z,44.50
2018-01-06T05:22:15.229Z,29.47
2018-01-06T05:24:41.421Z,33.10
2018-01-06T05:27:07.632Z,31.73
2018-01-06T05:29:34.549Z,30.33
2018-01-06T05:32:00.725Z,31.83
2018-01-06T05:34:26.897Z,30.90
2018-01-06T05:36:53.084Z,33.27
2018-01-06T05:39:19.261Z,33.63
2018-01-06T05:41:45.467Z,31.33
2018-01-06T05:44:11.633Z,31.83
2018-01-06T05:46:37.830Z,38.60
2018-01-06T05:49:04.016Z,29.63
2018-01-06T05:51:30.191Z,22.47
2018-01-06T05:53:56.624Z,49.53
2018-01-06T05:56:22.837Z,28.63
2018-01-06T05:58:49.775Z,27.23
2018-01-06T06:01:15.960Z,40.63
2018-01-06T06:03:42.147Z,34.13
2018-01-06T06:06:08.327Z,35.23
2018-01-06T06:08:34.504Z,26.87
2018-01-06T06:11:00.711Z,26.40
2018-01-06T06:13:26.912Z,28.70
2018-01-06T06:15:53.080Z,32.60
2018-01-06T06:18:19.284Z,29.93
2018-01-06T06:20:45.452Z,26.17
2018-01-06T06:23:11.628Z,30.53
2018-01-06T06:25:38.556Z,34.43
2018-01-06T06:28:04.732Z,30.33
2018-01-06T06:30:30.905Z,30.23
2018-01-06T06:32:57.088Z,36.63
2018-01-06T06:35:23.264Z,34.13
2018-01-06T06:37:49.420Z,43.67
2018-01-06T06:40:15.613Z,39.20
2018-01-06T06:42:41.789Z,32.67
2018-01-06T06:45:07.956Z,35.57
2018-01-06T06:47:34.161Z,35.17
2018-01-06T06:50:00.328Z,39.23
2018-01-06T06:52:27.232Z,43.57
2018-01-06T06:54:53.496Z,33.57
2018-01-06T06:57:19.705Z,32.77
2018-01-06T06:59:45.881Z,28.97
2018-01-06T07:02:12.776Z,31.73
2018-01-06T07:04:38.976Z,36.33
2018-01-06T07:07:05.309Z,38.00
2018-01-06T07:09:31.510Z,33.03
2018-01-06T07:11:57.680Z,35.53
2018-01-06T07:14:23.849Z,41.80
2018-01-06T07:16:50.040Z,34.53
2018-01-06T07:19:16.939Z,28.60
2018-01-06T07:21:43.109Z,34.70
2018-01-06T07:24:10.029Z,29.63
2018-01-06T07:26:36.184Z,36.70
2018-01-06T07:29:02.378Z,27.23
2018-01-06T07:31:28.603Z,33.57
2018-01-06T07:33:54.785Z,27.80
2018-01-06T07:36:21.698Z,36.37
2018-01-06T07:38:47.884Z,31.70
2018-01-06T07:41:14.060Z,26.67
2018-01-06T07:43:40.251Z,34.33
2018-01-06T07:46:07.178Z,32.93
2018-01-06T07:48:33.339Z,30.00
2018-01-06T07:50:59.505Z,29.50
2018-01-06T07:53:25.684Z,23.90
2018-01-06T07:55:52.677Z,23.73
2018-01-06T07:58:18.872Z,29.50
2018-01-06T08:00:45.792Z,25.70
2018-01-06T08:03:11.984Z,25.47
2018-01-06T08:05:38.184Z,25.70
2018-01-06T08:08:04.379Z,27.50
2018-01-06T08:10:30.571Z,30.13
2018-01-06T08:12:56.751Z,23.63
2018-01-06T08:15:22.940Z,27.43
2018-01-06T08:17:49.116Z,35.40
2018-01-06T08:20:15.276Z,31.43
2018-01-06T08:22:41.468Z,26.97
2018-01-06T08:25:07.654Z,33.50
2018-01-06T08:27:33.855Z,31.10
2018-01-06T08:30:00.091Z,40.30
2018-01-06T08:32:26.260Z,26.63
2018-01-06T08:34:53.192Z,32.17
2018-01-06T08:37:19.376Z,37.40
2018-01-06T08:39:45.544Z,27.17
2018-01-06T08:42:11.722Z,29.50
2018-01-06T08:44:38.660Z,32.67
2018-01-06T08:47:05.581Z,30.43
2018-01-06T08:49:31.759Z,35.10
2018-01-06T08:51:57.958Z,36.80
2018-01-06T08:54:24.140Z,30.87
2018-01-06T08:56:50.403Z,31.20
2018-01-06T08:59:17.361Z,37.27
2018-01-06T09:01:43.533Z,32.43
2018-01-06T09:04:10.484Z,32.07
2018-01-06T09:06:37.417Z,42.00
2018-01-06T09:09:04.365Z,44.37
2018-01-06T09:11:31.316Z,29.30
2018-01-06T09:13:57.500Z,32.47
2018-01-06T09:16:23.680Z,33.10
2018-01-06T09:18:49.864Z,32.23
2018-01-06T09:21:16.056Z,48.13
2018-01-06T09:23:42.220Z,35.87
2018-01-06T09:26:08.392Z,40.87
2018-01-06T09:28:34.614Z,39.73
2018-01-06T09:31:00.800Z,39.33
2018-01-06T09:33:26.983Z,41.37
2018-01-06T09:35:53.164Z,40.07
2018-01-06T09:38:20.080Z,45.83
2018-01-06T09:40:46.269Z,39.77
2018-01-06T09:43:12.455Z,44.60
2018-01-06T09:45:38.616Z,40.83
2018-01-06T09:48:04.781Z,40.73
2018-01-06T09:50:30.981Z,50.63
2018-01-06T09:52:57.905Z,43.67
2018-01-06T09:55:24.080Z,47.07
2018-01-06T09:57:51.076Z,38.00
2018-01-06T10:00:17.349Z,43.70
2018-01-06T10:02:43.544Z,49.53
2018-01-06T10:05:09.780Z,43.43
2018-01-06T10:07:35.961Z,42.63
2018-01-06T10:10:02.905Z,40.40
2018-01-06T10:12:29.092Z,40.03
2018-01-06T10:14:55.252Z,58.53
2018-01-06T10:17:21.463Z,39.87
2018-01-06T10:19:47.635Z,58.33
2018-01-06T10:22:14.563Z,39.90
2018-01-06T10:24:40.744Z,46.77
2018-01-06T10:27:07.678Z,42.13
2018-01-06T10:29:34.592Z,43.50
2018-01-06T10:32:00.792Z,48.77
2018-01-06T10:34:26.997Z,49.13
2018-01-06T10:36:53.219Z,51.10
2018-01-06T10:39:19.384Z,47.67
2018-01-06T10:41:45.592Z,70.90
2018-01-06T10:44:12.532Z,42.07
2018-01-06T10:46:39.469Z,43.90
2018-01-06T10:49:05.701Z,43.67
2018-01-06T10:51:31.860Z,41.93
2018-01-06T10:53:58.783Z,39.80
2018-01-06T10:56:24.957Z,40.97
2018-01-06T10:58:51.922Z,38.80
2018-01-06T11:01:24.205Z,48.77
2018-01-06T11:03:50.390Z,43.50
2018-01-06T11:06:16.576Z,42.90
2018-01-06T11:08:42.743Z,41.53
2018-01-06T11:11:08.967Z,39.80
2018-01-06T11:13:35.151Z,38.67
2018-01-06T11:16:02.074Z,39.87
2018-01-06T11:18:28.289Z,34.27
2018-01-06T11:20:54.477Z,41.20
2018-01-06T11:23:20.652Z,34.07
2018-01-06T11:25:46.848Z,37.30
2018-01-06T11:28:13.036Z,35.53
2018-01-06T11:30:39.214Z,35.73
2018-01-06T11:33:06.140Z,38.63
2018-01-06T11:35:33.075Z,34.83
2018-01-06T11:37:59.260Z,35.13
2018-01-06T11:40:25.496Z,40.30
2018-01-06T11:42:51.672Z,37.57
2018-01-06T11:45:18.620Z,36.63
2018-01-06T11:47:45.566Z,43.03
2018-01-06T11:50:11.761Z,41.43
2018-01-06T11:52:37.965Z,43.30
2018-01-06T11:55:04.917Z,39.27
2018-01-06T11:57:31.833Z,46.40
2018-01-06T11:59:58.108Z,34.20
2018-01-06T12:02:24.300Z,33.90
2018-01-06T12:04:50.467Z,39.23
2018-01-06T12:07:17.381Z,31.63
2018-01-06T12:09:43.556Z,30.97
2018-01-06T12:12:10.508Z,36.87
2018-01-06T12:14:36.691Z,35.97
2018-01-06T12:17:02.906Z,35.60
2018-01-06T12:19:29.093Z,36.83
2018-01-06T12:21:56.046Z,34.37
2018-01-06T12:24:22.995Z,31.73
2018-01-06T12:26:49.916Z,52.37
2018-01-06T12:29:16.451Z,40.07
2018-01-06T12:31:42.648Z,36.00
2018-01-06T12:34:08.824Z,25.70
2018-01-06T12:36:34.996Z,31.83
2018-01-06T12:39:01.984Z,28.13
2018-01-06T12:41:28.196Z,14.70
2018-01-06T12:43:54.376Z,14.40
2018-01-06T12:46:20.553Z,15.23
2018-01-06T12:48:47.489Z,12.53
2018-01-06T12:51:14.448Z,8.37
2018-01-06T12:53:40.684Z,11.40
2018-01-06T12:56:07.616Z,9.73
2018-01-06T12:58:34.567Z,8.10
2018-01-06T13:01:01.805Z,10.73
2018-01-06T13:03:28.022Z,10.30
2018-01-06T13:05:54.196Z,7.73
2018-01-06T13:08:20.385Z,9.03
2018-01-06T13:10:46.548Z,10.13
2018-01-06T13:13:12.712Z,8.73
2018-01-06T13:15:39.660Z,5.07
2018-01-06T13:18:06.569Z,6.60
2018-01-06T13:20:32.728Z,5.20
2018-01-06T13:22:59.681Z,5.80
2018-01-06T13:25:26.624Z,5.10
2018-01-06T13:27:52.804Z,6.13
2018-01-06T13:30:19.013Z,5.67
2018-01-06T13:32:45.936Z,5.90
2018-01-06T13:35:12.105Z,4.67
2018-01-06T13:37:39.042Z,4.87
2018-01-06T13:40:05.212Z,17.97
2018-01-06T13:42:31.372Z,6.33
2018-01-06T13:44:57.564Z,4.70
2018-01-06T13:47:23.756Z,4.80
2018-01-06T13:49:49.931Z,5.20
2018-01-06T13:52:16.852Z,5.80
2018-01-06T13:54:44.772Z,5.40
2018-01-06T13:57:10.972Z,6.07
2018-01-06T13:59:37.896Z,6.40
2018-01-06T14:02:04.177Z,7.40
2018-01-06T14:04:30.383Z,11.20
2018-01-06T14:06:56.788Z,13.00
2018-01-06T14:09:22.963Z,7.63
2018-01-06T14:11:49.905Z,8.50
2018-01-06T14:14:16.837Z,9.60
2018-01-06T14:16:43.024Z,8.90
2018-01-06T14:19:09.185Z,9.57
2018-01-06T14:21:35.372Z,10.27
2018-01-06T14:24:02.276Z,16.30
2018-01-06T14:26:28.431Z,12.10
2018-01-06T14:28:54.608Z,8.53
2018-01-06T14:31:20.792Z,8.53
2018-01-06T14:33:46.965Z,9.07
2018-01-06T14:36:13.152Z,7.30
2018-01-06T14:38:39.337Z,6.63
2018-01-06T14:41:05.524Z,6.33
2018-01-06T14:43:31.718Z,4.63
2018-01-06T14:45:57.900Z,5.97
2018-01-06T14:48:24.075Z,5.93
2018-01-06T14:50:50.257Z,4.93
2018-01-06T14:53:16.425Z,5.33
2018-01-06T14:55:43.336Z,5.20
2018-01-06T14:58:09.532Z,5.27
2018-01-06T15:00:35.723Z,4.07
2018-01-06T15:03:03.076Z,4.10
2018-01-06T15:05:30.025Z,3.80
2018-01-06T15:07:56.217Z,4.40
2018-01-06T15:10:22.396Z,6.03
2018-01-06T15:12:49.387Z,4.07
2018-01-06T15:15:15.591Z,3.80
2018-01-06T15:17:42.528Z,4.20
2018-01-06T15:20:08.732Z,4.40
2018-01-06T15:22:34.911Z,4.10
2018-01-06T15:25:01.169Z,4.23
2018-01-06T15:27:27.385Z,3.97
2018-01-06T15:29:54.302Z,4.67
2018-01-06T15:32:20.480Z,3.93
2018-01-06T15:34:47.426Z,3.93
2018-01-06T15:37:14.337Z,3.63
2018-01-06T15:39:40.524Z,3.67
2018-01-06T15:42:06.767Z,3.50
2018-01-06T15:44:32.944Z,4.87
2018-01-06T15:46:59.848Z,3.53
2018-01-06T15:49:26.052Z,3.97
2018-01-06T15:51:52.952Z,4.33
2018-01-06T15:54:19.852Z,3.90
2018-01-06T15:56:46.043Z,3.47
2018-01-06T15:59:12.209Z,4.13
2018-01-06T16:01:39.132Z,3.80
2018-01-06T16:04:05.404Z,4.50
2018-01-06T16:06:31.596Z,3.43
2018-01-06T16:08:57.769Z,4.53
2018-01-06T16:11:24.813Z,4.10
2018-01-06T16:13:51.635Z,5.93
2018-01-06T16:16:18.593Z,5.43
2018-01-06T16:18:44.858Z,4.47
2018-01-06T16:21:11.769Z,4.87
2018-01-06T16:23:37.941Z,6.10
2018-01-06T16:26:04.888Z,12.60
2018-01-06T16:28:31.804Z,5.03
2018-01-06T16:30:57.988Z,6.07
2018-01-06T16:33:24.959Z,5.67
2018-01-06T16:35:51.119Z,5.13
2018-01-06T16:38:17.280Z,4.93
2018-01-06T16:40:43.480Z,5.00
2018-01-06T16:43:09.652Z,5.67
2018-01-06T16:45:35.851Z,5.37
2018-01-06T16:48:02.084Z,5.27
2018-01-06T16:50:28.280Z,5.20
2018-01-06T16:52:54.448Z,6.03
2018-01-06T16:55:20.688Z,6.10
2018-01-06T16:57:46.880Z,5.23
2018-01-06T17:00:13.794Z,5.73
2018-01-06T17:02:40.009Z,5.30
2018-01-06T17:05:06.256Z,6.80
2018-01-06T17:07:33.216Z,5.60
2018-01-06T17:09:59.427Z,5.87
2018-01-06T17:12:25.598Z,6.53
2018-01-06T17:14:52.522Z,5.67
2018-01-06T17:17:18.710Z,5.77
2018-01-06T17:19:44.894Z,6.17
2018-01-06T17:22:11.087Z,7.30
2018-01-06T17:24:37.284Z,6.00
2018-01-06T17:27:04.194Z,5.20
2018-01-06T17:29:30.410Z,5.10
2018-01-06T17:31:56.614Z,5.50
2018-01-06T17:34:23.524Z,5.77
2018-01-06T17:36:49.700Z,5.90
2018-01-06T17:39:16.633Z,6.03
2018-01-06T17:41:43.558Z,8.87
2018-01-06T17:44:09.740Z,6.23
2018-01-06T17:46:35.955Z,7.70
2018-01-06T17:49:02.890Z,4.93
2018-01-06T17:51:29.096Z,4.90
2018-01-06T17:53:55.309Z,5.93
2018-01-06T17:56:21.492Z,5.23
2018-01-06T17:58:47.676Z,7.07
2018-01-06T18:01:13.876Z,5.07
2018-01-06T18:03:40.068Z,5.23
2018-01-06T18:06:06.327Z,7.13
2018-01-06T18:08:32.538Z,5.30
2018-01-06T18:10:58.757Z,7.20
2018-01-06T18:13:24.896Z,9.40
2018-01-06T18:15:51.085Z,4.87
2018-01-06T18:18:18.008Z,5.37
2018-01-06T18:20:44.176Z,6.20
2018-01-06T18:23:10.355Z,6.17
2018-01-06T18:25:36.552Z,5.33
2018-01-06T18:28:02.732Z,6.57
2018-01-06T18:30:28.984Z,5.60
2018-01-06T18:32:55.174Z,5.40
2018-01-06T18:35:21.357Z,7.37
2018-01-06T18:37:48.288Z,5.80
2018-01-06T18:40:14.461Z,6.33
2018-01-06T18:42:41.390Z,5.97
2018-01-06T18:45:07.584Z,5.57
2018-01-06T18:47:33.792Z,5.90
2018-01-06T18:49:59.986Z,6.03
2018-01-06T18:52:26.168Z,5.70
2018-01-06T18:54:52.348Z,5.83
2018-01-06T18:57:18.524Z,5.30
2018-01-06T18:59:44.700Z,6.53
2018-01-06T19:02:10.862Z,7.50
2018-01-06T19:04:37.788Z,6.93
2018-01-06T19:07:04.061Z,5.77
2018-01-06T19:09:30.243Z,5.90
2018-01-06T19:11:56.752Z,6.83
2018-01-06T19:14:22.936Z,5.73
2018-01-06T19:16:49.105Z,5.90
2018-01-06T19:19:15.287Z,5.90
2018-01-06T19:21:41.469Z,6.93
2018-01-06T19:24:07.656Z,5.30
2018-01-06T19:26:33.828Z,5.73
2018-01-06T19:29:00.765Z,5.40
2018-01-06T19:31:26.929Z,6.97
2018-01-06T19:33:53.823Z,7.80
2018-01-06T19:36:20.024Z,9.83
2018-01-06T19:38:46.212Z,5.90
2018-01-06T19:41:12.399Z,14.40
2018-01-06T19:43:38.622Z,7.20
2018-01-06T19:46:04.833Z,10.43
2018-01-06T19:48:30.953Z,9.40
2018-01-06T19:50:57.901Z,7.40
2018-01-06T19:53:24.091Z,7.03
2018-01-06T19:55:50.272Z,7.53
2018-01-06T19:58:16.496Z,8.00
2018-01-06T20:00:42.657Z,8.33
2018-01-06T20:03:09.570Z,8.07
2018-01-06T20:05:37.233Z,7.53
2018-01-06T20:08:03.528Z,8.30
2018-01-06T20:10:29.729Z,8.10
2018-01-06T20:12:56.668Z,8.63
2018-01-06T20:15:23.583Z,11.40
2018-01-06T20:17:49.753Z,7.87
2018-01-06T20:20:16.693Z,9.03
2018-01-06T20:22:42.856Z,7.90
2018-01-06T20:25:09.032Z,13.70
2018-01-06T20:27:35.275Z,8.73
2018-01-06T20:30:02.124Z,8.60
2018-01-06T20:32:28.300Z,9.20
2018-01-06T20:34:55.248Z,13.20
2018-01-06T20:37:22.156Z,8.20
2018-01-06T20:39:48.329Z,12.63
2018-01-06T20:42:15.256Z,9.40
2018-01-06T20:44:41.428Z,8.10
2018-01-06T20:47:08.328Z,8.73
2018-01-06T20:49:34.512Z,9.93
2018-01-06T20:52:00.688Z,9.70
2018-01-06T20:54:26.848Z,8.87
2018-01-06T20:56:53.023Z,11.07
2018-01-06T20:59:19.220Z,9.30
2018-01-06T21:01:45.395Z,8.97
2018-01-06T21:04:11.576Z,6.77
2018-01-06T21:06:37.748Z,13.80
2018-01-06T21:09:04.872Z,7.60
2018-01-06T21:11:31.815Z,5.03
2018-01-06T21:13:57.991Z,9.03
2018-01-06T21:16:24.173Z,5.23
2018-01-06T21:18:50.403Z,4.60
2018-01-06T21:21:16.580Z,5.77
2018-01-06T21:23:43.501Z,10.43
2018-01-06T21:26:11.144Z,4.97
2018-01-06T21:28:40.452Z,6.97
2018-01-06T21:31:10.057Z,8.70
2018-01-06T21:33:39.545Z,5.10
2018-01-06T21:36:07.749Z,4.50
2018-01-06T21:38:34.541Z,6.47
2018-01-06T21:41:01.492Z,20.37
2018-01-06T21:43:28.412Z,4.20
2018-01-06T21:45:56.506Z,12.83
2018-01-06T21:48:25.041Z,8.40
2018-01-06T21:50:53.664Z,4.07
2018-01-06T21:53:23.388Z,17.77
2018-01-06T21:55:51.691Z,4.70
2018-01-06T21:58:21.730Z,4.53
2018-01-06T22:00:50.140Z,5.70
2018-01-06T22:03:18.851Z,4.60
2018-01-06T22:05:47.312Z,5.43
2018-01-06T22:08:15.251Z,3.07
2018-01-06T22:10:44.114Z,4.83
2018-01-06T22:13:14.605Z,2.13
2018-01-06T22:15:42.546Z,2.10
2018-01-06T22:18:11.446Z,7.70
2018-01-06T22:20:40.645Z,4.50
2018-01-06T22:23:09.169Z,4.03
2018-01-06T22:25:37.641Z,1.93
2018-01-06T22:28:06.000Z,4.73
2018-01-06T22:55:48.508Z,3.80
2018-01-06T22:58:17.433Z,2.63
2018-01-06T23:00:49.380Z,7.40
2018-01-06T23:03:18.628Z,4.70
2018-01-06T23:05:48.114Z,4.93
2018-01-06T23:08:16.901Z,1.50
2018-01-06T23:10:45.256Z,2.93
2018-01-06T23:13:14.388Z,7.90
2018-01-06T23:15:42.945Z,3.40
2018-01-06T23:18:11.122Z,4.13
2018-01-06T23:20:39.536Z,8.37
2018-01-06T23:23:08.095Z,5.13
2018-01-06T23:25:35.507Z,10.63
2018-01-06T23:28:01.700Z,3.80
2018-01-06T23:30:27.912Z,6.00
2018-01-06T23:32:54.105Z,2.27
2018-01-06T23:35:20.282Z,1.40
2018-01-06T23:37:46.455Z,3.67
2018-01-06T23:40:12.653Z,1.83
2018-01-06T23:42:39.565Z,3.23
2018-01-06T23:45:05.739Z,1.60
2018-01-06T23:47:31.912Z,4.07
2018-01-06T23:49:58.080Z,4.87
2018-01-06T23:52:24.276Z,3.33
2018-01-06T23:54:50.512Z,4.80
2018-01-06T23:57:16.769Z,6.27
2018-01-06T23:59:42.980Z,5.77
